sensor_id;sensor_type;location;lat;lon;timestamp;pressure;altitude;pressure_sealevel;temperature;humidity
71565;BME280;59397;50.952;14.502;2024-01-07T00:12:31;967.99;;;-3.58;100.00
71565;BME280;59397;50.952;14.502;2024-01-07T00:32:05;968.03;;;-3.56;100.00
71565;BME280;59397;50.952;14.502;2024-01-07T00:51:41;968.19;;;-3.57;100.00
71565;BME280;59397;50.952;14.502;2024-01-07T01:11:14;968.33;;;-3.48;100.00
71565;BME280;59397;50.952;14.502;2024-01-07T01:30:45;968.58;;;-3.59;100.00
71565;BME280;59397;50.952;14.502;2024-01-07T01:50:17;968.58;;;-3.70;100.00
71565;BME280;59397;50.952;14.502;2024-01-07T02:09:50;968.88;;;-3.79;100.00
71565;BME280;59397;50.952;14.502;2024-01-07T02:29:22;968.87;;;-3.76;100.00
71565;BME280;59397;50.952;14.502;2024-01-07T02:48:55;969.00;;;-3.88;100.00
71565;BME280;59397;50.952;14.502;2024-01-07T03:08:28;969.10;;;-3.82;100.00
71565;BME280;59397;50.952;14.502;2024-01-07T03:28:02;969.06;;;-4.13;100.00
71565;BME280;59397;50.952;14.502;2024-01-07T03:47:34;969.25;;;-4.00;100.00
71565;BME280;59397;50.952;14.502;2024-01-07T04:07:05;969.37;;;-4.29;100.00
71565;BME280;59397;50.952;14.502;2024-01-07T04:26:38;969.56;;;-4.21;100.00
71565;BME280;59397;50.952;14.502;2024-01-07T04:46:10;969.62;;;-4.69;100.00
71565;BME280;59397;50.952;14.502;2024-01-07T05:05:44;969.85;;;-4.77;100.00
71565;BME280;59397;50.952;14.502;2024-01-07T05:25:17;970.11;;;-4.74;100.00
71565;BME280;59397;50.952;14.502;2024-01-07T05:44:50;970.21;;;-4.87;100.00
71565;BME280;59397;50.952;14.502;2024-01-07T06:04:25;970.48;;;-4.99;100.00
71565;BME280;59397;50.952;14.502;2024-01-07T06:23:59;970.67;;;-4.94;100.00
71565;BME280;59397;50.952;14.502;2024-01-07T06:43:31;970.78;;;-5.25;100.00
71565;BME280;59397;50.952;14.502;2024-01-07T07:03:05;970.98;;;-5.14;100.00
71565;BME280;59397;50.952;14.502;2024-01-07T07:22:38;971.28;;;-5.48;100.00
71565;BME280;59397;50.952;14.502;2024-01-07T07:42:13;971.54;;;-5.22;100.00
71565;BME280;59397;50.952;14.502;2024-01-07T08:01:46;971.67;;;-4.61;100.00
71565;BME280;59397;50.952;14.502;2024-01-07T08:21:18;971.74;;;-4.95;100.00
71565;BME280;59397;50.952;14.502;2024-01-07T08:40:52;971.81;;;-5.01;100.00
71565;BME280;59397;50.952;14.502;2024-01-07T09:00:26;972.14;;;-4.89;100.00
71565;BME280;59397;50.952;14.502;2024-01-07T09:20:00;972.39;;;-5.04;100.00
71565;BME280;59397;50.952;14.502;2024-01-07T09:39:38;972.49;;;-5.01;100.00
71565;BME280;59397;50.952;14.502;2024-01-07T09:59:07;972.77;;;-5.29;100.00
71565;BME280;59397;50.952;14.502;2024-01-07T10:18:38;972.70;;;-5.41;100.00
71565;BME280;59397;50.952;14.502;2024-01-07T10:38:12;972.70;;;-5.10;100.00
71565;BME280;59397;50.952;14.502;2024-01-07T10:57:45;972.74;;;-5.00;100.00
71565;BME280;59397;50.952;14.502;2024-01-07T11:17:18;972.99;;;-5.25;100.00
71565;BME280;59397;50.952;14.502;2024-01-07T11:36:50;973.02;;;-5.36;100.00
71565;BME280;59397;50.952;14.502;2024-01-07T11:56:23;972.89;;;-5.66;100.00
71565;BME280;59397;50.952;14.502;2024-01-07T12:15:55;972.98;;;-5.59;100.00
71565;BME280;59397;50.952;14.502;2024-01-07T12:35:28;973.04;;;-5.95;100.00
71565;BME280;59397;50.952;14.502;2024-01-07T12:55:04;973.25;;;-6.24;100.00
71565;BME280;59397;50.952;14.502;2024-01-07T13:14:37;973.38;;;-5.36;100.00
71565;BME280;59397;50.952;14.502;2024-01-07T13:34:10;973.51;;;-5.76;100.00
71565;BME280;59397;50.952;14.502;2024-01-07T13:53:44;973.55;;;-5.93;100.00
71565;BME280;59397;50.952;14.502;2024-01-07T14:13:18;973.82;;;-5.57;100.00
71565;BME280;59397;50.952;14.502;2024-01-07T14:32:50;973.92;;;-5.86;100.00
71565;BME280;59397;50.952;14.502;2024-01-07T14:52:24;974.09;;;-5.91;100.00
71565;BME280;59397;50.952;14.502;2024-01-07T15:11:56;974.25;;;-6.13;100.00
71565;BME280;59397;50.952;14.502;2024-01-07T15:31:28;974.38;;;-6.28;100.00
71565;BME280;59397;50.952;14.502;2024-01-07T15:51:03;974.73;;;-5.98;100.00
71565;BME280;59397;50.952;14.502;2024-01-07T16:10:34;974.94;;;-6.38;100.00
71565;BME280;59397;50.952;14.502;2024-01-07T16:30:08;975.02;;;-6.33;100.00
71565;BME280;59397;50.952;14.502;2024-01-07T16:49:41;975.24;;;-6.17;100.00
71565;BME280;59397;50.952;14.502;2024-01-07T17:09:13;975.31;;;-6.38;100.00
71565;BME280;59397;50.952;14.502;2024-01-07T17:28:47;975.26;;;-6.44;100.00
71565;BME280;59397;50.952;14.502;2024-01-07T17:48:20;975.46;;;-6.47;100.00
71565;BME280;59397;50.952;14.502;2024-01-07T18:07:55;975.49;;;-6.30;100.00
71565;BME280;59397;50.952;14.502;2024-01-07T18:27:30;975.70;;;-6.36;100.00
71565;BME280;59397;50.952;14.502;2024-01-07T18:47:03;975.79;;;-6.36;100.00
71565;BME280;59397;50.952;14.502;2024-01-07T19:06:36;975.95;;;-6.34;100.00
71565;BME280;59397;50.952;14.502;2024-01-07T19:26:10;976.04;;;-5.97;100.00
71565;BME280;59397;50.952;14.502;2024-01-07T19:45:41;976.16;;;-6.43;100.00
71565;BME280;59397;50.952;14.502;2024-01-07T20:05:14;976.44;;;-6.96;100.00
71565;BME280;59397;50.952;14.502;2024-01-07T20:24:49;976.36;;;-6.72;100.00
71565;BME280;59397;50.952;14.502;2024-01-07T20:44:22;976.59;;;-7.21;100.00
71565;BME280;59397;50.952;14.502;2024-01-07T21:23:28;976.58;;;-7.24;100.00
71565;BME280;59397;50.952;14.502;2024-01-07T21:43:04;976.78;;;-6.85;100.00
71565;BME280;59397;50.952;14.502;2024-01-07T22:02:38;976.79;;;-6.94;100.00
71565;BME280;59397;50.952;14.502;2024-01-07T22:22:12;976.89;;;-6.84;100.00
71565;BME280;59397;50.952;14.502;2024-01-07T22:41:47;976.90;;;-7.03;100.00
71565;BME280;59397;50.952;14.502;2024-01-07T23:01:25;976.87;;;-6.62;100.00
71565;BME280;59397;50.952;14.502;2024-01-07T23:40:26;977.20;;;-6.74;100.00
